Time;durP1;ratioP1;P1;durP2;ratioP2;P2;SDS_P1;SDS_P2;PMS_P1;PMS_P2;Temp;Humidity;BMP_temperature;BMP_pressure;BME280_temperature;BME280_humidity;BME280_pressure;Samples;Min_cycle;Max_cycle;Signal;HPM_P1;HPM_P2
2024/01/01 00:02:03;;;;;;;94.23;47.20;;;10.00;99.90;;;;;;5015261;28;20216;-62
2024/01/01 00:04:30;;;;;;;95.90;49.23;;;10.00;99.90;;;;;;5020495;28;20301;-61
2024/01/01 00:06:57;;;;;;;93.63;47.37;;;10.00;99.90;;;;;;5016293;28;20219;-61
2024/01/01 00:09:24;;;;;;;96.53;46.87;;;10.00;99.90;;;;;;5014152;28;20606;-62
2024/01/01 00:11:51;;;;;;;98.37;46.97;;;10.10;99.90;;;;;;5016371;28;20194;-62
2024/01/01 00:14:18;;;;;;;89.40;48.70;;;10.10;99.90;;;;;;5012861;28;20565;-62
2024/01/01 00:16:46;;;;;;;97.53;49.27;;;10.10;99.90;;;;;;5015233;28;20240;-62
2024/01/01 00:19:14;;;;;;;84.37;46.80;;;10.20;99.90;;;;;;5018857;28;20219;-62
2024/01/01 00:21:41;;;;;;;87.50;46.07;;;10.20;99.90;;;;;;5014780;28;20263;-62
2024/01/01 00:24:08;;;;;;;76.87;43.03;;;10.20;99.90;;;;;;5017676;28;20493;-62
2024/01/01 00:26:35;;;;;;;85.80;45.83;;;10.20;99.90;;;;;;5016547;28;20272;-62
2024/01/01 00:29:03;;;;;;;82.73;42.47;;;10.30;99.90;;;;;;5014273;28;20213;-62
2024/01/01 00:31:31;;;;;;;90.93;44.30;;;10.30;99.90;;;;;;5011935;28;20204;-61
2024/01/01 00:33:58;;;;;;;82.83;44.43;;;10.30;99.90;;;;;;5010320;28;20265;-62
2024/01/01 00:36:25;;;;;;;74.03;42.60;;;10.30;99.90;;;;;;5015817;28;20204;-61
2024/01/01 00:38:53;;;;;;;74.53;40.63;;;10.30;99.90;;;;;;5014319;28;20256;-62
2024/01/01 00:41:20;;;;;;;79.87;42.40;;;10.30;99.90;;;;;;5017857;28;20198;-62
2024/01/01 00:43:48;;;;;;;68.27;40.73;;;10.30;99.90;;;;;;5019540;28;20209;-62
2024/01/01 00:46:15;;;;;;;70.90;40.77;;;10.30;99.90;;;;;;5016988;28;20214;-62
2024/01/01 00:48:43;;;;;;;69.77;39.53;;;10.30;99.90;;;;;;5016966;28;20309;-61
2024/01/01 00:51:10;;;;;;;69.07;39.67;;;10.30;99.90;;;;;;5014745;28;20659;-61
2024/01/01 00:53:38;;;;;;;72.43;39.03;;;10.40;99.90;;;;;;5014010;28;20293;-62
2024/01/01 00:56:06;;;;;;;69.27;40.03;;;10.40;99.90;;;;;;5016420;28;20313;-61
2024/01/01 00:58:33;;;;;;;71.80;38.87;;;10.40;99.90;;;;;;5001273;28;20203;-61
2024/01/01 01:01:02;;;;;;;68.00;39.40;;;10.40;99.90;;;;;;5016413;28;20207;-62
2024/01/01 01:03:31;;;;;;;67.77;41.83;;;10.40;99.90;;;;;;5016308;28;20213;-62
2024/01/01 01:05:58;;;;;;;62.13;40.73;;;10.50;99.90;;;;;;5016554;28;20247;-62
2024/01/01 01:08:37;;;;;;;66.40;39.63;;;10.50;99.90;;;;;;5013340;28;20571;-62
2024/01/01 01:11:04;;;;;;;56.20;37.10;;;10.40;99.90;;;;;;5013268;28;20203;-61
2024/01/01 01:13:31;;;;;;;56.13;37.00;;;10.50;99.90;;;;;;5015586;28;20207;-61
2024/01/01 01:15:58;;;;;;;61.10;34.03;;;10.50;99.90;;;;;;5017217;28;20208;-62
2024/01/01 01:18:25;;;;;;;49.17;30.80;;;10.50;99.90;;;;;;5015177;28;20217;-61
2024/01/01 01:20:52;;;;;;;42.43;27.93;;;10.50;99.90;;;;;;5014130;28;20196;-62
2024/01/01 01:23:19;;;;;;;38.97;27.60;;;10.50;99.90;;;;;;5015745;28;20207;-61
2024/01/01 01:25:46;;;;;;;35.43;24.37;;;10.50;99.90;;;;;;5015653;28;20203;-61
2024/01/01 01:28:24;;;;;;;42.87;26.33;;;10.50;99.90;;;;;;5013589;28;20218;-61
2024/01/01 01:30:51;;;;;;;37.33;26.23;;;10.50;99.90;;;;;;5018442;28;20191;-62
2024/01/01 01:33:18;;;;;;;38.30;25.10;;;10.40;99.90;;;;;;5013591;28;20202;-61
2024/01/01 01:35:45;;;;;;;35.70;25.27;;;10.40;99.90;;;;;;5017417;28;20193;-62
2024/01/01 01:38:12;;;;;;;38.73;28.30;;;10.40;99.90;;;;;;5017245;28;20208;-61
2024/01/01 01:40:39;;;;;;;36.80;27.07;;;10.40;99.90;;;;;;5019289;28;20222;-61
2024/01/01 01:43:21;;;;;;;38.60;26.83;;;10.40;99.90;;;;;;5014227;28;20204;-61
2024/01/01 01:45:51;;;;;;;35.73;25.53;;;10.40;99.90;;;;;;5012046;28;20230;-61
2024/01/01 01:48:18;;;;;;;32.63;23.93;;;10.40;99.90;;;;;;5014927;28;20313;-62
2024/01/01 01:50:47;;;;;;;35.57;26.23;;;10.40;99.90;;;;;;5014780;28;20261;-61
2024/01/01 01:53:15;;;;;;;35.63;26.13;;;10.40;99.90;;;;;;5013409;28;20705;-62
2024/01/01 01:55:45;;;;;;;37.70;25.97;;;10.40;99.90;;;;;;5017470;28;20190;-61
2024/01/01 01:58:12;;;;;;;41.93;27.83;;;10.40;99.90;;;;;;5017175;28;20286;-62
2024/01/01 02:00:40;;;;;;;41.53;29.00;;;10.40;99.90;;;;;;5014283;28;20269;-62
2024/01/01 02:03:08;;;;;;;43.87;30.73;;;10.40;99.90;;;;;;5014187;28;20206;-62
2024/01/01 02:05:35;;;;;;;46.63;32.87;;;10.40;99.90;;;;;;5000845;28;20239;-61
2024/01/01 02:08:04;;;;;;;41.60;30.83;;;10.30;99.90;;;;;;5017555;28;20257;-62
2024/01/01 02:10:32;;;;;;;50.07;33.93;;;10.30;99.90;;;;;;5007327;28;20709;-61
2024/01/01 02:13:00;;;;;;;47.57;33.93;;;10.30;99.90;;;;;;5014612;28;20200;-61
2024/01/01 02:15:27;;;;;;;58.33;37.40;;;10.30;99.90;;;;;;5020288;28;20641;-61
2024/01/01 02:17:55;;;;;;;53.37;37.47;;;10.30;99.90;;;;;;5022261;28;20219;-61
2024/01/01 02:20:22;;;;;;;51.03;37.53;;;10.30;99.90;;;;;;5017475;28;20839;-62
2024/01/01 02:22:56;;;;;;;53.07;37.80;;;10.30;99.90;;;;;;5018451;28;20792;-62
2024/01/01 02:25:24;;;;;;;52.50;37.57;;;10.30;99.90;;;;;;5018971;28;20206;-61
2024/01/01 02:27:51;;;;;;;53.90;36.03;;;10.30;99.90;;;;;;5017071;28;20284;-61
2024/01/01 02:30:18;;;;;;;48.23;34.40;;;10.30;99.90;;;;;;5020836;28;20202;-62
2024/01/01 02:32:45;;;;;;;40.40;31.53;;;10.30;99.90;;;;;;5016660;28;20501;-62
2024/01/01 02:35:12;;;;;;;41.57;29.80;;;10.30;99.90;;;;;;5022556;28;20209;-61
2024/01/01 02:37:39;;;;;;;46.27;30.67;;;10.30;99.90;;;;;;5020674;28;20211;-62
2024/01/01 02:40:08;;;;;;;38.77;28.93;;;10.30;99.90;;;;;;5017628;28;20645;-62
2024/01/01 02:42:35;;;;;;;35.17;28.23;;;10.30;99.90;;;;;;5017870;28;20197;-62
2024/01/01 02:45:03;;;;;;;38.40;28.80;;;10.30;99.90;;;;;;5015341;28;20202;-61
2024/01/01 02:47:30;;;;;;;39.83;28.03;;;10.30;99.90;;;;;;5025641;28;20308;-61
2024/01/01 02:49:57;;;;;;;43.50;27.97;;;10.30;99.90;;;;;;5021282;28;20200;-61
2024/01/01 02:52:24;;;;;;;38.97;26.30;;;10.20;99.90;;;;;;5016406;28;20590;-61
2024/01/01 02:54:52;;;;;;;33.50;24.90;;;10.20;99.90;;;;;;5017661;28;20276;-62
2024/01/01 02:57:19;;;;;;;33.97;25.07;;;10.20;99.90;;;;;;5016626;28;20217;-61
2024/01/01 02:59:46;;;;;;;36.33;26.00;;;10.10;99.90;;;;;;5019057;28;20300;-62
2024/01/01 03:02:14;;;;;;;33.83;25.30;;;10.10;99.90;;;;;;5017877;28;21135;-61
2024/01/01 03:04:42;;;;;;;28.50;22.60;;;10.00;99.90;;;;;;5016835;28;20242;-61
2024/01/01 03:07:09;;;;;;;28.70;21.50;;;10.00;99.90;;;;;;5018310;28;20206;-61
2024/01/01 03:09:36;;;;;;;28.23;21.87;;;9.90;99.90;;;;;;5017792;28;20199;-61
2024/01/01 03:12:05;;;;;;;26.10;21.47;;;9.90;99.90;;;;;;5019478;28;20191;-62
2024/01/01 03:14:32;;;;;;;27.20;20.50;;;9.80;99.90;;;;;;5015033;28;20214;-61
2024/01/01 03:17:00;;;;;;;28.07;21.13;;;9.70;99.90;;;;;;5016244;28;20264;-62
2024/01/01 03:19:27;;;;;;;28.33;20.60;;;9.60;99.90;;;;;;5017704;28;20730;-61
2024/01/01 03:21:54;;;;;;;29.03;20.90;;;9.60;99.90;;;;;;5016659;28;20214;-61
2024/01/01 03:24:21;;;;;;;24.47;19.47;;;9.50;99.90;;;;;;5017430;28;20280;-61
2024/01/01 03:26:48;;;;;;;28.90;21.47;;;9.50;99.90;;;;;;5018018;28;20687;-61
2024/01/01 03:29:15;;;;;;;27.60;21.20;;;9.40;99.90;;;;;;5017040;28;20230;-62
2024/01/01 03:31:45;;;;;;;30.03;22.83;;;9.30;99.90;;;;;;5016964;28;20229;-61
2024/01/01 03:34:12;;;;;;;28.57;22.03;;;9.30;99.90;;;;;;5016652;28;20212;-61
2024/01/01 03:36:39;;;;;;;30.87;21.80;;;9.20;99.90;;;;;;4999611;28;20249;-61
2024/01/01 03:39:07;;;;;;;30.20;21.60;;;9.20;99.90;;;;;;5017088;28;20221;-62
2024/01/01 03:41:34;;;;;;;28.70;21.70;;;9.20;99.90;;;;;;5021588;28;20207;-61
2024/01/01 03:44:02;;;;;;;29.20;21.47;;;9.10;99.90;;;;;;5017203;28;20307;-62
2024/01/01 03:46:29;;;;;;;32.10;22.90;;;9.10;99.90;;;;;;5019153;28;20197;-61
2024/01/01 03:48:56;;;;;;;31.10;21.60;;;9.00;99.90;;;;;;5024130;28;20217;-61
2024/01/01 03:51:23;;;;;;;33.50;23.77;;;9.00;99.90;;;;;;5019746;28;20228;-61
2024/01/01 03:53:50;;;;;;;34.37;23.77;;;9.00;99.90;;;;;;5017414;28;20202;-62
2024/01/01 03:56:17;;;;;;;34.30;22.63;;;9.00;99.90;;;;;;5015907;28;20260;-62
2024/01/01 03:58:45;;;;;;;33.40;24.57;;;9.00;99.90;;;;;;5017807;28;20208;-61
2024/01/01 04:01:13;;;;;;;33.00;22.70;;;8.90;99.90;;;;;;5017809;28;20200;-62
2024/01/01 04:03:40;;;;;;;35.40;22.77;;;8.90;99.90;;;;;;5019776;28;20210;-61
2024/01/01 04:06:08;;;;;;;33.10;23.83;;;8.90;99.90;;;;;;5011364;28;20245;-61
2024/01/01 04:08:35;;;;;;;30.10;21.67;;;8.90;99.90;;;;;;4995971;28;20292;-61
2024/01/01 04:11:03;;;;;;;31.37;22.33;;;8.90;99.90;;;;;;4994919;28;20207;-61
2024/01/01 04:13:30;;;;;;;34.30;23.07;;;8.90;99.90;;;;;;4999996;28;20588;-61
2024/01/01 04:15:57;;;;;;;33.17;24.33;;;8.80;99.90;;;;;;4996012;28;20200;-61
2024/01/01 04:18:25;;;;;;;34.20;22.73;;;8.80;99.90;;;;;;4996645;28;20213;-61
2024/01/01 04:20:53;;;;;;;30.27;22.40;;;8.80;99.90;;;;;;4995856;28;20202;-62
2024/01/01 04:23:20;;;;;;;33.63;22.53;;;8.80;99.90;;;;;;4997896;28;20311;-62
2024/01/01 04:25:47;;;;;;;33.20;22.73;;;8.80;99.90;;;;;;4994933;28;20565;-62
2024/01/01 04:28:14;;;;;;;31.97;22.10;;;8.80;99.90;;;;;;5002712;28;20546;-61
2024/01/01 04:30:41;;;;;;;30.90;22.57;;;8.80;99.90;;;;;;4994320;28;20662;-61
2024/01/01 04:33:08;;;;;;;30.73;22.20;;;8.70;99.90;;;;;;4995759;28;20913;-61
2024/01/01 04:35:35;;;;;;;30.57;22.23;;;8.70;99.90;;;;;;5001368;28;20210;-61
2024/01/01 04:38:02;;;;;;;32.07;23.03;;;8.70;99.90;;;;;;4994818;28;20207;-61
2024/01/01 04:40:31;;;;;;;32.60;21.43;;;8.70;99.90;;;;;;4998432;28;20532;-61
2024/01/01 04:45:14;;;;;;;28.50;20.87;;;8.60;99.90;;;;;;5105580;27;20551;-77
2024/01/01 04:47:42;;;;;;;31.07;21.70;;;8.60;99.90;;;;;;5107636;28;20199;-78
2024/01/01 04:50:10;;;;;;;32.73;21.67;;;8.60;99.90;;;;;;5124410;28;20231;-77
2024/01/01 04:52:37;;;;;;;28.87;21.43;;;8.60;99.90;;;;;;5109912;28;20203;-78
2024/01/01 04:55:04;;;;;;;27.90;20.93;;;8.50;99.90;;;;;;5099479;28;20231;-78
2024/01/01 04:57:31;;;;;;;31.67;20.80;;;8.60;99.90;;;;;;5103089;28;20204;-77
2024/01/01 04:59:58;;;;;;;33.27;21.97;;;8.50;99.90;;;;;;5108968;28;20543;-78
2024/01/01 05:02:26;;;;;;;32.13;21.50;;;8.50;99.90;;;;;;5086877;28;20664;-77
2024/01/01 05:04:53;;;;;;;26.27;21.03;;;8.50;99.90;;;;;;5117418;28;20220;-78
2024/01/01 05:07:20;;;;;;;31.53;21.83;;;8.50;99.90;;;;;;5104370;28;20206;-77
2024/01/01 05:09:47;;;;;;;31.20;22.03;;;8.50;99.90;;;;;;5100852;28;20195;-78
2024/01/01 05:12:14;;;;;;;30.80;21.67;;;8.50;99.90;;;;;;5095817;28;20203;-77
2024/01/01 05:14:42;;;;;;;32.30;20.87;;;8.50;99.90;;;;;;5081918;28;20622;-78
2024/01/01 05:17:09;;;;;;;30.00;21.30;;;8.50;99.90;;;;;;5106592;28;20266;-78
2024/01/01 05:19:36;;;;;;;31.27;21.20;;;8.40;99.90;;;;;;5107438;28;20602;-78
2024/01/01 05:22:04;;;;;;;27.83;20.43;;;8.40;99.90;;;;;;5112159;28;20209;-78
2024/01/01 05:24:31;;;;;;;28.40;20.50;;;8.40;99.90;;;;;;5115107;28;20265;-77
2024/01/01 05:26:58;;;;;;;28.63;21.53;;;8.40;99.90;;;;;;5110135;28;20203;-78
2024/01/01 05:29:25;;;;;;;28.63;20.03;;;8.40;99.90;;;;;;5099669;28;20268;-79
2024/01/01 05:31:54;;;;;;;29.70;21.03;;;8.40;99.90;;;;;;5084620;28;20272;-78
2024/01/01 05:34:22;;;;;;;27.97;21.00;;;8.40;99.90;;;;;;5103775;28;20289;-79
2024/01/01 05:36:49;;;;;;;29.80;21.90;;;8.30;99.90;;;;;;5111148;28;20199;-78
2024/01/01 05:39:16;;;;;;;27.30;21.13;;;8.30;99.90;;;;;;5104079;28;20198;-78
2024/01/01 05:41:44;;;;;;;28.37;20.43;;;8.30;99.90;;;;;;5105474;28;20262;-79
2024/01/01 05:44:11;;;;;;;31.70;21.33;;;8.30;99.90;;;;;;5100195;28;20401;-79
2024/01/01 05:46:38;;;;;;;33.53;21.83;;;8.30;99.90;;;;;;5109407;28;20198;-78
2024/01/01 05:49:05;;;;;;;33.30;21.43;;;8.30;99.90;;;;;;5093745;28;20291;-79
2024/01/01 05:51:32;;;;;;;27.10;20.07;;;8.30;99.90;;;;;;5098593;28;20282;-79
2024/01/01 05:54:00;;;;;;;29.83;20.73;;;8.20;99.90;;;;;;5098440;28;20220;-79
2024/01/01 05:56:27;;;;;;;27.30;21.23;;;8.20;99.90;;;;;;5081094;28;20259;-79
2024/01/01 05:58:54;;;;;;;27.47;20.70;;;8.20;99.90;;;;;;5092865;28;20217;-79
2024/01/01 06:01:22;;;;;;;30.97;22.57;;;8.20;99.90;;;;;;5078458;28;20203;-79
2024/01/01 06:03:49;;;;;;;28.90;21.33;;;8.20;99.90;;;;;;5087633;28;20303;-79
2024/01/01 06:06:16;;;;;;;30.37;21.87;;;8.20;99.90;;;;;;5086361;28;20225;-79
2024/01/01 06:08:43;;;;;;;28.67;20.80;;;8.20;99.90;;;;;;5085844;28;20652;-79
2024/01/01 06:11:10;;;;;;;28.97;20.67;;;8.10;99.90;;;;;;5092015;28;20195;-78
2024/01/01 06:13:38;;;;;;;30.70;21.30;;;8.10;99.90;;;;;;5086379;28;20200;-79
2024/01/01 06:16:05;;;;;;;29.97;21.37;;;8.10;99.90;;;;;;5084830;28;20226;-78
2024/01/01 06:18:33;;;;;;;29.93;20.07;;;8.10;99.90;;;;;;5084550;28;20240;-78
2024/01/01 06:21:00;;;;;;;32.40;21.50;;;8.10;99.90;;;;;;5076775;28;20197;-79
2024/01/01 06:23:27;;;;;;;32.10;20.23;;;8.10;99.90;;;;;;5090462;28;20210;-79
2024/01/01 06:25:55;;;;;;;30.50;22.03;;;8.10;99.90;;;;;;5082536;28;20205;-79
2024/01/01 06:28:22;;;;;;;30.57;20.97;;;8.00;99.90;;;;;;5092920;28;20213;-79
2024/01/01 06:30:49;;;;;;;28.33;20.23;;;8.00;99.90;;;;;;5082518;28;20189;-78
2024/01/01 06:33:16;;;;;;;29.60;21.30;;;8.00;99.90;;;;;;5092108;28;20301;-79
2024/01/01 06:35:44;;;;;;;33.80;21.83;;;8.00;99.90;;;;;;5091814;28;20198;-79
2024/01/01 06:38:11;;;;;;;31.90;20.53;;;8.00;99.90;;;;;;5082244;28;20298;-80
2024/01/01 06:40:39;;;;;;;29.83;21.83;;;8.00;99.90;;;;;;5080240;28;20194;-78
2024/01/01 06:43:06;;;;;;;30.93;22.37;;;8.00;99.90;;;;;;5081337;28;20208;-79
2024/01/01 06:45:33;;;;;;;27.20;20.73;;;7.90;99.90;;;;;;5083538;28;20270;-79
2024/01/01 06:48:00;;;;;;;32.17;21.97;;;8.00;99.90;;;;;;5074408;28;20202;-79
2024/01/01 06:50:27;;;;;;;31.90;22.40;;;8.00;99.90;;;;;;5087103;28;20592;-79
2024/01/01 06:52:55;;;;;;;29.60;21.57;;;8.00;99.90;;;;;;5078173;28;21191;-79
2024/01/01 06:55:22;;;;;;;36.20;21.83;;;8.00;99.90;;;;;;5087419;28;20238;-79
2024/01/01 06:57:52;;;;;;;36.60;23.03;;;8.00;99.90;;;;;;5092425;28;20194;-79
2024/01/01 07:00:20;;;;;;;33.83;22.20;;;8.00;99.90;;;;;;5095846;28;20198;-79
2024/01/01 07:02:47;;;;;;;34.97;22.27;;;8.00;99.90;;;;;;5093083;28;20213;-79
2024/01/01 07:05:14;;;;;;;30.87;22.00;;;8.00;99.90;;;;;;5084648;28;20227;-79
2024/01/01 07:07:41;;;;;;;31.00;20.70;;;8.00;99.90;;;;;;5089479;28;20189;-79
2024/01/01 07:10:09;;;;;;;35.00;22.53;;;8.00;99.90;;;;;;5071368;28;20207;-79
2024/01/01 07:12:36;;;;;;;32.00;22.07;;;8.00;99.90;;;;;;5094558;28;20250;-79
2024/01/01 07:15:07;;;;;;;35.03;21.30;;;8.00;99.90;;;;;;5078349;28;20202;-79
2024/01/01 07:17:35;;;;;;;30.30;21.63;;;8.00;99.90;;;;;;5076293;28;20198;-79
2024/01/01 07:20:04;;;;;;;34.03;22.17;;;8.00;99.90;;;;;;5078783;28;20225;-79
2024/01/01 07:22:32;;;;;;;34.53;22.17;;;8.00;99.90;;;;;;5088648;28;20259;-79
2024/01/01 07:24:59;;;;;;;34.97;23.33;;;8.10;99.90;;;;;;5074758;28;20662;-79
2024/01/01 07:27:26;;;;;;;34.00;21.67;;;8.10;99.90;;;;;;5087454;28;20586;-79
2024/01/01 07:29:53;;;;;;;33.77;22.77;;;8.10;99.90;;;;;;5087611;28;20190;-78
2024/01/01 07:32:20;;;;;;;32.57;21.80;;;8.10;99.90;;;;;;5064164;28;20199;-79
2024/01/01 07:34:47;;;;;;;37.50;22.87;;;8.10;99.90;;;;;;5086549;28;20205;-79
2024/01/01 07:37:14;;;;;;;40.83;23.77;;;8.10;99.90;;;;;;5087218;28;20632;-79
2024/01/01 07:39:42;;;;;;;38.87;22.97;;;8.20;99.90;;;;;;5080102;28;20198;-79
2024/01/01 07:42:09;;;;;;;36.47;23.43;;;8.20;99.90;;;;;;5085567;28;20202;-79
2024/01/01 07:44:36;;;;;;;36.53;24.83;;;8.20;99.90;;;;;;5085345;28;20627;-79
2024/01/01 07:47:03;;;;;;;37.50;24.83;;;8.20;99.90;;;;;;5084584;28;20268;-79
2024/01/01 07:49:31;;;;;;;37.00;23.67;;;8.20;99.90;;;;;;5087680;28;20254;-79
2024/01/01 07:51:58;;;;;;;34.83;25.33;;;8.30;99.90;;;;;;5081658;28;20194;-79
2024/01/01 07:54:26;;;;;;;39.07;24.77;;;8.30;99.90;;;;;;5089560;28;20214;-80
2024/01/01 07:56:54;;;;;;;34.47;23.93;;;8.40;99.90;;;;;;5080102;28;20216;-79
2024/01/01 07:59:21;;;;;;;35.30;23.30;;;8.40;99.90;;;;;;5088254;28;20745;-79
2024/01/01 08:01:48;;;;;;;40.07;24.30;;;8.40;99.90;;;;;;5092182;28;20626;-79
2024/01/01 08:04:15;;;;;;;36.70;24.80;;;8.50;99.90;;;;;;5081859;28;20221;-79
2024/01/01 08:06:42;;;;;;;37.83;26.10;;;8.50;99.90;;;;;;5087471;28;20211;-79
2024/01/01 08:09:10;;;;;;;37.50;24.73;;;8.50;99.90;;;;;;5093667;28;20201;-78
2024/01/01 08:11:37;;;;;;;36.70;24.80;;;8.60;99.90;;;;;;5070149;28;20711;-79
2024/01/01 08:14:04;;;;;;;39.77;24.67;;;8.70;99.90;;;;;;5083190;28;20656;-79
2024/01/01 08:16:34;;;;;;;37.60;24.53;;;8.80;99.90;;;;;;5089629;28;20218;-78
2024/01/01 08:19:01;;;;;;;33.57;22.70;;;8.90;99.90;;;;;;5079413;28;20201;-79
2024/01/01 08:21:28;;;;;;;39.53;25.13;;;8.90;99.90;;;;;;5089019;28;20209;-79
2024/01/01 08:23:55;;;;;;;37.40;25.13;;;9.00;99.90;;;;;;5082410;28;20268;-79
2024/01/01 08:26:23;;;;;;;41.33;24.87;;;9.10;99.90;;;;;;5087042;28;20216;-79
2024/01/01 08:28:52;;;;;;;33.10;23.33;;;9.10;99.90;;;;;;5087331;28;20195;-79
2024/01/01 08:31:20;;;;;;;32.27;22.93;;;9.20;99.90;;;;;;5085864;28;20249;-79
2024/01/01 08:33:48;;;;;;;35.20;23.93;;;9.20;99.90;;;;;;5092235;28;20217;-79
2024/01/01 08:36:19;;;;;;;35.43;24.63;;;9.30;99.90;;;;;;5092466;28;20630;-79
2024/01/01 08:38:46;;;;;;;34.47;23.03;;;9.30;99.90;;;;;;5078924;28;20192;-79
2024/01/01 08:41:14;;;;;;;30.37;22.17;;;9.40;99.90;;;;;;5083583;28;20276;-79
2024/01/01 08:43:46;;;;;;;30.77;21.63;;;9.40;99.90;;;;;;5083383;28;20237;-79
2024/01/01 08:46:14;;;;;;;34.73;23.27;;;9.40;99.90;;;;;;5082582;28;20216;-78
2024/01/01 08:48:42;;;;;;;34.43;24.50;;;9.50;99.90;;;;;;5087093;28;20228;-79
2024/01/01 08:51:09;;;;;;;34.13;23.77;;;9.50;99.90;;;;;;5090663;28;20203;-79
2024/01/01 08:53:36;;;;;;;33.87;24.27;;;9.60;99.90;;;;;;5093493;28;20261;-79
2024/01/01 08:56:04;;;;;;;31.43;22.23;;;9.60;99.90;;;;;;5086325;28;20200;-79
2024/01/01 08:58:31;;;;;;;33.37;22.93;;;9.70;99.90;;;;;;5074900;28;20231;-79
2024/01/01 09:00:59;;;;;;;33.57;23.33;;;9.70;99.90;;;;;;5081363;28;20221;-79
2024/01/01 09:03:27;;;;;;;29.60;21.47;;;9.80;99.90;;;;;;5083613;28;20201;-79
2024/01/01 09:05:56;;;;;;;34.87;22.00;;;9.80;99.90;;;;;;5093346;28;20229;-79
2024/01/01 09:08:24;;;;;;;30.50;21.20;;;9.80;99.90;;;;;;5087216;28;20201;-78
2024/01/01 09:10:51;;;;;;;27.63;19.97;;;9.90;99.90;;;;;;5084049;28;20226;-79
2024/01/01 09:13:18;;;;;;;29.93;20.77;;;9.90;99.90;;;;;;5083899;28;20217;-79
2024/01/01 09:15:45;;;;;;;30.57;21.63;;;10.00;99.90;;;;;;5090663;28;20520;-79
2024/01/01 09:18:12;;;;;;;31.10;21.73;;;10.20;99.90;;;;;;5074806;28;20549;-79
2024/01/01 09:20:41;;;;;;;32.57;21.80;;;10.20;99.90;;;;;;5092374;28;21184;-79
2024/01/01 09:23:09;;;;;;;31.67;21.23;;;10.30;99.90;;;;;;5084419;28;20198;-79
2024/01/01 09:25:40;;;;;;;30.27;21.83;;;10.30;99.90;;;;;;5089886;28;20712;-79
2024/01/01 09:28:07;;;;;;;30.07;20.87;;;10.40;99.90;;;;;;5077415;28;20200;-78
2024/01/01 09:30:35;;;;;;;31.23;21.70;;;10.40;99.90;;;;;;5084536;28;20224;-79
2024/01/01 09:33:02;;;;;;;31.43;22.30;;;10.40;99.90;;;;;;5077563;28;20198;-78
2024/01/01 09:35:31;;;;;;;29.67;21.90;;;10.40;99.90;;;;;;5083659;28;20263;-78
2024/01/01 09:37:58;;;;;;;33.90;22.20;;;10.40;99.90;;;;;;5085310;28;20240;-78
2024/01/01 09:40:25;;;;;;;34.83;22.97;;;10.50;99.90;;;;;;5080279;28;20206;-77
2024/01/01 09:42:52;;;;;;;33.87;22.83;;;10.50;99.90;;;;;;5087982;28;20216;-79
2024/01/01 09:45:19;;;;;;;34.87;23.27;;;10.50;99.90;;;;;;5093309;28;20212;-79
2024/01/01 09:47:47;;;;;;;36.90;24.00;;;10.50;99.90;;;;;;5087727;28;20202;-78
2024/01/01 09:50:14;;;;;;;31.97;22.97;;;10.60;99.90;;;;;;5091535;28;20227;-78
2024/01/01 09:52:42;;;;;;;34.13;23.53;;;10.60;99.90;;;;;;5088484;28;20215;-78
2024/01/01 09:55:10;;;;;;;33.93;22.30;;;10.60;99.90;;;;;;5084328;28;20291;-78
2024/01/01 09:57:38;;;;;;;34.00;25.03;;;10.70;99.90;;;;;;5090215;28;20206;-79
2024/01/01 10:00:19;;;;;;;34.90;23.60;;;10.70;99.90;;;;;;5080645;28;20277;-78
2024/01/01 10:02:47;;;;;;;35.27;24.30;;;10.70;99.90;;;;;;5103245;28;20239;-79
2024/01/01 10:05:16;;;;;;;35.53;23.77;;;10.70;99.90;;;;;;5088911;28;20256;-79
2024/01/01 10:07:47;;;;;;;37.07;25.20;;;10.70;99.90;;;;;;5086479;28;20218;-79
2024/01/01 10:10:27;;;;;;;35.17;25.93;;;10.80;99.90;;;;;;5090008;28;20204;-79
2024/01/01 10:13:12;;;;;;;37.57;25.00;;;10.80;99.90;;;;;;5077330;28;20200;-77
2024/01/01 10:15:41;;;;;;;36.67;24.63;;;10.80;99.90;;;;;;5093523;28;20208;-78
2024/01/01 10:18:16;;;;;;;38.13;24.37;;;10.80;99.90;;;;;;5087671;28;20235;-77
2024/01/01 10:20:44;;;;;;;38.07;25.20;;;10.80;99.90;;;;;;5080972;28;20196;-78
2024/01/01 10:23:20;;;;;;;37.20;25.73;;;10.90;99.90;;;;;;5083088;28;20690;-78
2024/01/01 10:25:51;;;;;;;39.57;23.53;;;10.90;99.90;;;;;;5085276;28;20212;-79
2024/01/01 10:28:24;;;;;;;35.57;24.20;;;11.00;99.90;;;;;;5083267;28;20202;-78
2024/01/01 10:30:52;;;;;;;35.07;24.40;;;11.00;99.90;;;;;;5084002;28;20205;-79
2024/01/01 10:33:21;;;;;;;35.50;24.67;;;11.00;99.80;;;;;;5071274;28;20239;-78
2024/01/01 10:35:50;;;;;;;34.43;23.73;;;11.10;99.70;;;;;;5085519;28;20211;-78
2024/01/01 10:38:19;;;;;;;34.43;24.20;;;11.10;99.60;;;;;;5083515;28;20205;-78
2024/01/01 10:40:48;;;;;;;36.17;24.10;;;11.20;99.50;;;;;;5086046;28;20224;-78
2024/01/01 10:43:18;;;;;;;33.37;23.63;;;11.20;99.50;;;;;;5093238;28;20238;-78
2024/01/01 10:45:47;;;;;;;34.53;23.60;;;11.20;99.50;;;;;;5085530;28;20286;-79
2024/01/01 10:48:15;;;;;;;30.03;22.00;;;11.30;99.40;;;;;;5093714;28;20200;-79
2024/01/01 10:51:13;;;;;;;36.60;24.17;;;11.30;99.30;;;;;;5087859;28;20290;-79
2024/01/01 10:53:52;;;;;;;36.07;24.33;;;11.30;99.30;;;;;;5106471;28;20589;-79
2024/01/01 10:56:39;;;;;;;35.90;24.57;;;11.30;99.30;;;;;;5096954;28;20608;-79
2024/01/01 10:59:19;;;;;;;39.13;25.37;;;11.30;99.10;;;;;;5089685;28;20206;-78
2024/01/01 11:01:50;;;;;;;36.47;23.97;;;11.30;99.10;;;;;;5095461;28;20519;-78
2024/01/01 11:04:22;;;;;;;37.20;24.77;;;11.40;99.10;;;;;;5092861;28;20590;-78
2024/01/01 11:06:49;;;;;;;38.97;25.73;;;11.40;99.00;;;;;;5077051;28;20228;-78
2024/01/01 11:09:19;;;;;;;40.07;25.27;;;11.40;98.80;;;;;;5082585;28;20323;-80
2024/01/01 11:11:51;;;;;;;37.37;25.63;;;11.40;98.80;;;;;;5078730;28;20529;-79
2024/01/01 11:14:31;;;;;;;36.03;27.33;;;11.40;98.80;;;;;;5083354;28;20201;-78
2024/01/01 11:17:06;;;;;;;35.70;26.10;;;11.40;98.80;;;;;;5106340;28;20228;-80
2024/01/01 11:19:41;;;;;;;37.87;25.73;;;11.50;98.70;;;;;;5068638;28;20208;-79
2024/01/01 11:22:18;;;;;;;35.20;25.07;;;11.50;98.70;;;;;;5080070;28;20199;-80
2024/01/01 11:24:50;;;;;;;35.17;23.83;;;11.50;98.60;;;;;;5084085;28;20280;-79
2024/01/01 11:27:24;;;;;;;35.43;24.73;;;11.60;98.50;;;;;;5077950;28;20198;-79
2024/01/01 11:29:52;;;;;;;37.47;24.37;;;11.70;98.40;;;;;;5094599;28;20201;-79
2024/01/01 11:32:19;;;;;;;31.87;22.83;;;11.70;98.40;;;;;;5082084;28;20199;-78
2024/01/01 11:35:06;;;;;;;32.67;22.33;;;11.80;98.30;;;;;;5088800;28;20291;-79
2024/01/01 11:37:35;;;;;;;33.47;23.37;;;11.80;97.80;;;;;;5075751;28;20228;-79
2024/01/01 11:40:05;;;;;;;32.83;22.80;;;11.80;97.70;;;;;;5081754;28;20209;-79
2024/01/01 11:42:34;;;;;;;34.97;23.53;;;11.80;97.60;;;;;;5084552;28;20645;-79
2024/01/01 11:45:07;;;;;;;33.90;24.37;;;11.90;97.30;;;;;;5087274;28;20233;-79
2024/01/01 11:47:36;;;;;;;32.33;23.50;;;11.90;97.20;;;;;;5084287;28;20205;-79
2024/01/01 11:50:04;;;;;;;34.23;23.30;;;11.90;97.20;;;;;;5089246;28;20202;-79
2024/01/01 11:52:32;;;;;;;35.00;23.27;;;11.90;97.20;;;;;;5087236;28;20197;-79
2024/01/01 11:54:59;;;;;;;34.30;23.50;;;12.00;97.30;;;;;;5080768;28;20207;-79
2024/01/01 11:57:27;;;;;;;28.77;21.57;;;12.00;97.30;;;;;;5089749;28;20643;-79
2024/01/01 11:59:55;;;;;;;31.17;21.63;;;12.00;97.20;;;;;;5080261;28;20195;-79
2024/01/01 12:02:23;;;;;;;35.17;23.60;;;12.10;97.20;;;;;;5088369;28;20226;-79
2024/01/01 12:04:52;;;;;;;32.47;22.33;;;12.10;97.10;;;;;;5079074;28;20212;-79
2024/01/01 12:07:31;;;;;;;32.60;21.80;;;12.10;96.70;;;;;;5086880;28;20204;-79
2024/01/01 12:10:03;;;;;;;34.03;23.17;;;12.10;96.60;;;;;;5092534;28;20219;-79
2024/01/01 12:12:30;;;;;;;31.30;22.90;;;12.10;96.20;;;;;;5091139;28;20258;-79
2024/01/01 12:15:14;;;;;;;33.90;23.00;;;12.00;96.00;;;;;;5084086;28;20345;-78
2024/01/01 12:17:44;;;;;;;31.20;22.47;;;12.00;96.20;;;;;;5076029;28;20208;-77
2024/01/01 12:20:19;;;;;;;35.10;23.77;;;12.00;96.30;;;;;;5081189;28;20324;-78
2024/01/01 12:22:48;;;;;;;32.67;23.03;;;12.00;96.40;;;;;;5089693;28;20189;-77
2024/01/01 12:25:19;;;;;;;32.73;22.90;;;12.00;96.20;;;;;;5077939;28;20295;-80
2024/01/01 12:28:08;;;;;;;30.67;20.90;;;12.00;96.20;;;;;;5085147;28;20193;-79
2024/01/01 12:30:36;;;;;;;34.07;21.97;;;12.00;96.00;;;;;;5082344;28;20277;-79
2024/01/01 12:33:05;;;;;;;28.77;21.00;;;11.90;95.70;;;;;;5078968;28;20304;-79
2024/01/01 12:35:37;;;;;;;32.07;22.73;;;11.90;95.80;;;;;;5078853;28;20197;-79
2024/01/01 12:38:05;;;;;;;33.27;22.77;;;11.80;95.70;;;;;;5074343;28;20209;-79
2024/01/01 12:40:32;;;;;;;32.80;22.53;;;11.80;95.80;;;;;;5089611;28;20602;-79